Dubai, United Arab Emirates
Current Conditions -  °F | °C
As of 11:00 AM on Saturday 25 Oct 2014 (Local Time) from OMDB Reporting Station
Clear Clear  
Wind Chill: 90°   Ceiling: Unl
Heat Index: 95°   Visibility: 6mi
Dew Point: 70°   Wind: 6mph
Humidity: 52%   Direction: 40°NE
Pressure: 29.88"   Gusts: NA
Location:  25.27°N, 55.33°E
Report Text: OMDB 250700Z 04005KT 340V120 CAVOK 32/21 Q1012 NOSIG
Loading
Personal Weather Stations






























Interactive Weather Map
Tropical Storm Tracking
New forecast layout! Learn more

10-Day Weather Forecast

Advertisements
Track Severe Weather on mobile